createdAt,value
2022-11-20T00:00:03.459Z,9.96
2022-11-20T00:01:03.446Z,9.97
2022-11-20T00:02:03.537Z,9.94
2022-11-20T00:03:03.421Z,9.94
2022-11-20T00:04:03.438Z,9.97
2022-11-20T00:05:03.393Z,9.97
2022-11-20T00:06:03.382Z,9.94
2022-11-20T00:07:03.410Z,9.96
2022-11-20T00:08:03.353Z,9.96
2022-11-20T00:09:03.340Z,9.96
2022-11-20T00:10:03.329Z,9.94
2022-11-20T00:11:03.320Z,9.94
2022-11-20T00:12:03.303Z,9.94
2022-11-20T00:13:03.287Z,9.96
2022-11-20T00:14:03.275Z,9.96
2022-11-20T00:15:03.261Z,9.96
2022-11-20T00:16:03.247Z,9.94
2022-11-20T00:17:03.237Z,9.94
2022-11-20T00:18:03.220Z,9.93
2022-11-20T00:19:03.213Z,9.93
2022-11-20T00:20:03.217Z,9.91
2022-11-20T00:21:03.185Z,9.91
2022-11-20T00:22:03.168Z,9.94
2022-11-20T00:23:03.157Z,9.93
2022-11-20T00:24:03.142Z,9.93
2022-11-20T00:25:03.136Z,9.96
2022-11-20T00:26:03.116Z,9.94
2022-11-20T00:27:03.104Z,9.94
2022-11-20T00:28:03.090Z,9.94
2022-11-20T00:29:03.081Z,9.93
2022-11-20T00:30:03.065Z,9.93
2022-11-20T00:31:03.054Z,9.91
2022-11-20T00:32:03.038Z,9.89
2022-11-20T00:33:03.025Z,9.89
2022-11-20T00:34:03.010Z,9.88
2022-11-20T00:35:03.000Z,9.88
2022-11-20T00:36:03.014Z,9.89
2022-11-20T00:37:02.975Z,9.89
2022-11-20T00:38:02.963Z,9.89
2022-11-20T00:39:02.950Z,9.88
2022-11-20T00:40:02.936Z,9.89
2022-11-20T00:41:02.918Z,9.91
2022-11-20T00:42:02.905Z,9.91
2022-11-20T00:43:02.892Z,9.88
2022-11-20T00:44:02.880Z,9.88
2022-11-20T00:45:02.871Z,9.88
2022-11-20T00:46:02.851Z,9.86
2022-11-20T00:47:02.842Z,9.88
2022-11-20T00:48:02.832Z,9.88
2022-11-20T00:49:02.819Z,9.88
2022-11-20T00:50:02.800Z,9.86
2022-11-20T00:51:02.795Z,9.88
2022-11-20T00:52:02.797Z,9.86
2022-11-20T00:53:02.761Z,9.88
2022-11-20T00:54:02.748Z,9.85
2022-11-20T00:55:02.735Z,9.86
2022-11-20T00:56:02.743Z,9.86
2022-11-20T00:57:02.709Z,9.86
2022-11-20T00:58:04.615Z,9.86
2022-11-20T00:59:02.682Z,9.83
2022-11-20T01:00:02.668Z,9.83
2022-11-20T01:01:02.699Z,9.82
2022-11-20T01:02:02.641Z,9.81
2022-11-20T01:03:02.630Z,9.82
2022-11-20T01:04:02.614Z,9.85
2022-11-20T01:05:02.601Z,9.85
2022-11-20T01:06:02.590Z,9.86
2022-11-20T01:07:02.653Z,9.86
2022-11-20T01:08:02.588Z,9.86
2022-11-20T01:09:02.552Z,9.86
2022-11-20T01:10:02.538Z,9.85
2022-11-20T01:11:02.539Z,9.86
2022-11-20T01:12:02.512Z,9.85
2022-11-20T01:13:02.499Z,9.85
2022-11-20T01:14:02.486Z,9.83
2022-11-20T01:15:02.474Z,9.83
2022-11-20T01:16:02.460Z,9.86
2022-11-20T01:17:02.448Z,9.85
2022-11-20T01:18:02.434Z,9.85
2022-11-20T01:19:02.420Z,9.83
2022-11-20T01:20:02.413Z,9.85
2022-11-20T01:21:02.393Z,9.83
2022-11-20T01:22:02.380Z,9.85
2022-11-20T01:23:02.370Z,9.83
2022-11-20T01:24:02.357Z,9.85
2022-11-20T01:25:02.340Z,9.85
2022-11-20T01:26:02.326Z,9.82
2022-11-20T01:27:02.313Z,9.81
2022-11-20T01:28:02.300Z,9.82
2022-11-20T01:29:02.290Z,9.82
2022-11-20T01:30:02.276Z,9.82
2022-11-20T01:31:02.262Z,9.83
2022-11-20T01:32:02.247Z,9.82
2022-11-20T01:33:02.235Z,9.81
2022-11-20T01:34:02.221Z,9.81
2022-11-20T01:35:02.207Z,9.81
2022-11-20T01:36:02.194Z,9.81
2022-11-20T01:37:02.181Z,9.81
2022-11-20T01:38:02.167Z,9.79
2022-11-20T01:39:02.158Z,9.81
2022-11-20T01:40:02.143Z,9.77
2022-11-20T01:41:02.129Z,9.77
2022-11-20T01:42:07.039Z,9.81
2022-11-20T01:43:03.141Z,9.81
2022-11-20T01:44:02.087Z,9.82
2022-11-20T01:45:02.076Z,9.79
2022-11-20T01:46:02.062Z,9.82
2022-11-20T01:47:02.050Z,9.79
2022-11-20T01:48:02.036Z,9.81
2022-11-20T01:49:02.024Z,9.79
2022-11-20T01:50:02.009Z,9.79
2022-11-20T01:51:01.997Z,9.77
2022-11-20T01:52:01.982Z,9.75
2022-11-20T01:53:01.970Z,9.75
2022-11-20T01:54:01.956Z,9.77
2022-11-20T01:55:01.946Z,9.77
2022-11-20T01:56:01.931Z,9.75
2022-11-20T01:57:01.920Z,9.77
2022-11-20T01:58:01.906Z,9.75
2022-11-20T01:59:01.893Z,9.77
2022-11-20T02:00:01.880Z,9.81
2022-11-20T02:01:01.929Z,9.79
2022-11-20T02:02:01.854Z,9.81
2022-11-20T02:03:01.844Z,9.75
2022-11-20T02:04:01.827Z,9.75
2022-11-20T02:05:01.816Z,9.77
2022-11-20T02:06:01.801Z,9.77
2022-11-20T02:07:01.864Z,9.75
2022-11-20T02:08:01.775Z,9.79
2022-11-20T02:09:01.758Z,9.77
2022-11-20T02:10:01.748Z,9.75
2022-11-20T02:11:01.734Z,9.75
2022-11-20T02:12:01.724Z,9.75
2022-11-20T02:13:01.706Z,9.75
2022-11-20T02:14:01.696Z,9.79
2022-11-20T02:15:01.682Z,9.75
2022-11-20T02:16:01.671Z,9.75
2022-11-20T02:17:01.654Z,9.75
2022-11-20T02:18:01.646Z,9.75
2022-11-20T02:19:01.632Z,9.77
2022-11-20T02:20:01.615Z,9.77
2022-11-20T02:21:01.601Z,9.75
2022-11-20T02:22:01.590Z,9.74
2022-11-20T02:23:01.576Z,9.74
2022-11-20T02:24:01.562Z,9.75
2022-11-20T02:25:01.548Z,9.74
2022-11-20T02:26:01.537Z,9.72
2022-11-20T02:27:01.523Z,9.72
2022-11-20T02:28:01.510Z,9.74
2022-11-20T02:29:01.495Z,9.72
2022-11-20T02:30:01.483Z,9.72
2022-11-20T02:31:01.469Z,9.72
2022-11-20T02:32:01.456Z,9.74
2022-11-20T02:33:01.441Z,9.77
2022-11-20T02:34:01.432Z,9.77
2022-11-20T02:35:01.416Z,9.74
2022-11-20T02:36:01.405Z,9.74
2022-11-20T02:37:01.388Z,9.74
2022-11-20T02:38:01.379Z,9.72
2022-11-20T02:39:01.362Z,9.74
2022-11-20T02:40:01.351Z,9.74
2022-11-20T02:41:01.337Z,9.72
2022-11-20T02:42:01.326Z,9.72
2022-11-20T02:43:01.311Z,9.72
2022-11-20T02:44:01.299Z,9.72
2022-11-20T02:45:01.286Z,9.72
2022-11-20T02:46:01.272Z,9.72
2022-11-20T02:47:01.259Z,9.72
2022-11-20T02:48:01.246Z,9.72
2022-11-20T02:49:01.235Z,9.72
2022-11-20T02:50:01.222Z,9.72
2022-11-20T02:51:01.207Z,9.74
2022-11-20T02:52:01.197Z,9.72
2022-11-20T02:53:01.179Z,9.70
2022-11-20T02:54:01.167Z,9.70
2022-11-20T02:55:01.155Z,9.72
2022-11-20T02:56:01.141Z,9.74
2022-11-20T02:57:01.125Z,9.72
2022-11-20T02:58:01.114Z,9.72
2022-11-20T02:59:01.100Z,9.72
2022-11-20T03:00:01.089Z,9.70
2022-11-20T03:01:01.137Z,9.69
2022-11-20T03:02:01.062Z,9.69
2022-11-20T03:03:01.048Z,9.69
2022-11-20T03:04:01.036Z,9.69
2022-11-20T03:05:01.032Z,9.69
2022-11-20T03:06:01.009Z,9.69
2022-11-20T03:07:01.051Z,9.67
2022-11-20T03:08:00.984Z,9.69
2022-11-20T03:09:00.969Z,9.69
2022-11-20T03:10:00.959Z,9.69
2022-11-20T03:11:00.943Z,9.69
2022-11-20T03:12:00.931Z,9.66
2022-11-20T03:13:00.920Z,9.65
2022-11-20T03:14:00.903Z,9.66
2022-11-20T03:15:00.889Z,9.67
2022-11-20T03:16:00.877Z,9.69
2022-11-20T03:17:00.863Z,9.70
2022-11-20T03:18:00.852Z,9.69
2022-11-20T03:19:00.837Z,9.67
2022-11-20T03:20:00.824Z,9.69
2022-11-20T03:21:00.809Z,9.67
2022-11-20T03:22:00.801Z,9.66
2022-11-20T03:23:00.783Z,9.65
2022-11-20T03:24:00.771Z,9.67
2022-11-20T03:25:00.760Z,9.69
2022-11-20T03:26:00.745Z,9.70
2022-11-20T03:27:00.734Z,9.67
2022-11-20T03:28:00.723Z,9.67
2022-11-20T03:29:00.707Z,9.67
2022-11-20T03:30:00.694Z,9.67
2022-11-20T03:31:00.685Z,9.66
2022-11-20T03:32:00.668Z,9.65
2022-11-20T03:33:00.653Z,9.65
2022-11-20T03:34:00.641Z,9.65
2022-11-20T03:35:00.629Z,9.66
2022-11-20T03:36:00.619Z,9.65
2022-11-20T03:37:00.601Z,9.65
2022-11-20T03:38:00.591Z,9.66
2022-11-20T03:39:00.578Z,9.65
2022-11-20T03:40:00.564Z,9.65
2022-11-20T03:41:00.548Z,9.65
2022-11-20T03:42:00.537Z,9.66
2022-11-20T03:43:00.524Z,9.65
2022-11-20T03:44:00.513Z,9.65
2022-11-20T03:45:00.497Z,9.65
2022-11-20T03:46:00.484Z,9.63
2022-11-20T03:47:00.471Z,9.63
2022-11-20T03:48:00.459Z,9.63
2022-11-20T03:49:00.445Z,9.63
2022-11-20T03:50:00.432Z,9.65
2022-11-20T03:51:00.417Z,9.63
2022-11-20T03:52:00.406Z,9.65
2022-11-20T03:53:00.393Z,9.65
2022-11-20T03:54:00.379Z,9.63
2022-11-20T03:55:00.364Z,9.63
2022-11-20T03:56:00.353Z,9.63
2022-11-20T03:57:00.339Z,9.65
2022-11-20T03:58:00.327Z,9.63
2022-11-20T03:59:00.313Z,9.63
2022-11-20T04:00:00.298Z,9.60
2022-11-20T04:01:00.284Z,9.59
2022-11-20T04:02:00.365Z,9.60
2022-11-20T04:03:00.260Z,9.60
2022-11-20T04:04:00.250Z,9.59
2022-11-20T04:05:00.240Z,9.62
2022-11-20T04:06:00.222Z,9.60
2022-11-20T04:07:00.248Z,9.62
2022-11-20T04:08:00.195Z,9.60
2022-11-20T04:09:00.179Z,9.60
2022-11-20T04:10:00.168Z,9.60
2022-11-20T04:11:00.153Z,9.60
2022-11-20T04:12:00.141Z,9.59
2022-11-20T04:13:00.127Z,9.60
2022-11-20T04:14:00.129Z,9.60
2022-11-20T04:15:00.100Z,9.59
2022-11-20T04:16:00.090Z,9.59
2022-11-20T04:17:00.083Z,9.62
2022-11-20T04:18:00.077Z,9.60
2022-11-20T04:19:00.065Z,9.60
2022-11-20T04:20:00.041Z,9.60
2022-11-20T04:21:00.021Z,9.60
2022-11-20T04:22:00.073Z,9.60
2022-11-20T04:22:59.996Z,9.62
2022-11-20T04:23:59.986Z,9.60
2022-11-20T04:24:59.969Z,9.60
2022-11-20T04:25:59.960Z,9.62
2022-11-20T04:26:59.942Z,9.60
2022-11-20T04:27:59.931Z,9.60
2022-11-20T04:28:59.916Z,9.59
2022-11-20T04:29:59.904Z,9.60
2022-11-20T04:30:59.894Z,9.60
2022-11-20T04:31:59.879Z,9.59
2022-11-20T04:32:59.867Z,9.59
2022-11-20T04:33:59.853Z,9.60
2022-11-20T04:34:59.837Z,9.62
2022-11-20T04:35:59.826Z,9.60
2022-11-20T04:36:59.812Z,9.59
2022-11-20T04:37:59.798Z,9.57
2022-11-20T04:38:59.784Z,9.57
2022-11-20T04:39:59.773Z,9.56
2022-11-20T04:40:59.758Z,9.55
2022-11-20T04:41:59.746Z,9.56
2022-11-20T04:42:59.731Z,9.56
2022-11-20T04:43:59.720Z,9.56
2022-11-20T04:44:59.713Z,9.56
2022-11-20T04:45:59.693Z,9.57
2022-11-20T04:46:59.678Z,9.59
2022-11-20T04:47:59.666Z,9.56
2022-11-20T04:48:59.651Z,9.57
2022-11-20T04:49:59.712Z,9.57
2022-11-20T04:50:59.629Z,9.56
2022-11-20T04:51:59.613Z,9.59
2022-11-20T04:52:59.599Z,9.56
2022-11-20T04:53:59.590Z,9.57
2022-11-20T04:54:59.573Z,9.56
2022-11-20T04:55:59.561Z,9.59
2022-11-20T04:56:59.550Z,9.56
2022-11-20T04:57:59.535Z,9.55
2022-11-20T04:58:59.519Z,9.56
2022-11-20T04:59:59.510Z,9.55
2022-11-20T05:00:59.506Z,9.55
2022-11-20T05:01:59.566Z,9.56
2022-11-20T05:02:59.468Z,9.57
2022-11-20T05:03:59.455Z,9.55
2022-11-20T05:04:59.441Z,9.52
2022-11-20T05:05:59.428Z,9.52
2022-11-20T05:06:59.500Z,9.55
2022-11-20T05:07:59.402Z,9.56
2022-11-20T05:08:59.392Z,9.55
2022-11-20T05:09:59.377Z,9.57
2022-11-20T05:10:59.362Z,9.57
2022-11-20T05:11:59.352Z,9.55
2022-11-20T05:12:59.338Z,9.56
2022-11-20T05:13:59.331Z,9.55
2022-11-20T05:14:59.313Z,9.52
2022-11-20T05:15:59.297Z,9.55
2022-11-20T05:16:59.283Z,9.52
2022-11-20T05:17:59.273Z,9.52
2022-11-20T05:18:59.260Z,9.52
2022-11-20T05:19:59.245Z,9.52
2022-11-20T05:20:59.229Z,9.56
2022-11-20T05:21:59.218Z,9.55
2022-11-20T05:22:59.203Z,9.56
2022-11-20T05:23:59.190Z,9.56
2022-11-20T05:24:59.177Z,9.55
2022-11-20T05:25:59.674Z,9.52
2022-11-20T05:26:59.151Z,9.52
2022-11-20T05:27:59.139Z,9.55
2022-11-20T05:28:59.126Z,9.51
2022-11-20T05:29:59.116Z,9.49
2022-11-20T05:30:59.100Z,9.48
2022-11-20T05:31:59.091Z,9.51
2022-11-20T05:32:59.073Z,9.52
2022-11-20T05:33:59.061Z,9.49
2022-11-20T05:34:59.045Z,9.49
2022-11-20T05:35:59.035Z,9.49
2022-11-20T05:36:59.019Z,9.51
2022-11-20T05:37:59.008Z,9.51
2022-11-20T05:39:01.766Z,9.49
2022-11-20T05:39:58.979Z,9.49
2022-11-20T05:40:58.965Z,9.49
2022-11-20T05:41:58.954Z,9.47
2022-11-20T05:42:58.940Z,9.47
2022-11-20T05:43:58.930Z,9.47
2022-11-20T05:44:58.914Z,9.48
2022-11-20T05:45:58.920Z,9.48
2022-11-20T05:46:58.886Z,9.48
2022-11-20T05:47:58.884Z,9.48
2022-11-20T05:48:58.887Z,9.49
2022-11-20T05:49:58.849Z,9.45
2022-11-20T05:50:58.833Z,9.48
2022-11-20T05:51:58.823Z,9.47
2022-11-20T05:52:58.809Z,9.47
2022-11-20T05:53:58.804Z,9.47
2022-11-20T05:54:58.780Z,9.45
2022-11-20T05:55:58.768Z,9.48
2022-11-20T05:56:58.753Z,9.48
2022-11-20T05:57:58.740Z,9.48
2022-11-20T05:58:58.726Z,9.45
2022-11-20T05:59:58.714Z,9.48
2022-11-20T06:00:58.701Z,9.48
2022-11-20T06:01:58.689Z,9.47
2022-11-20T06:02:58.711Z,9.45
2022-11-20T06:03:58.663Z,9.47
2022-11-20T06:04:58.649Z,9.47
2022-11-20T06:05:58.638Z,9.47
2022-11-20T06:06:58.692Z,9.47
2022-11-20T06:07:58.611Z,9.47
2022-11-20T06:08:58.596Z,9.48
2022-11-20T06:09:58.584Z,9.51
2022-11-20T06:10:58.569Z,9.48
2022-11-20T06:11:58.558Z,9.47
2022-11-20T06:12:58.542Z,9.45
2022-11-20T06:13:58.530Z,9.47
2022-11-20T06:14:58.517Z,9.48
2022-11-20T06:15:58.507Z,9.47
2022-11-20T06:16:58.493Z,9.48
2022-11-20T06:17:58.479Z,9.48
2022-11-20T06:18:58.463Z,9.47
2022-11-20T06:19:58.452Z,9.45
2022-11-20T06:20:58.440Z,9.47
2022-11-20T06:21:58.425Z,9.44
2022-11-20T06:22:58.418Z,9.45
2022-11-20T06:23:58.398Z,9.47
2022-11-20T06:24:58.387Z,9.47
2022-11-20T06:25:58.372Z,9.48
2022-11-20T06:26:58.364Z,9.47
2022-11-20T06:27:58.345Z,9.47
2022-11-20T06:28:58.334Z,9.45
2022-11-20T06:29:58.318Z,9.47
2022-11-20T06:30:58.311Z,9.45
2022-11-20T06:31:58.294Z,9.44
2022-11-20T06:32:58.283Z,9.45
2022-11-20T06:33:58.266Z,9.44
2022-11-20T06:34:58.258Z,9.42
2022-11-20T06:36:00.468Z,9.44
2022-11-20T06:36:58.228Z,9.45
2022-11-20T06:37:58.213Z,9.45
2022-11-20T06:38:58.201Z,9.47
2022-11-20T06:39:58.187Z,9.47
2022-11-20T06:40:58.175Z,9.45
2022-11-20T06:41:59.176Z,9.44
2022-11-20T06:42:58.149Z,9.44
2022-11-20T06:43:58.133Z,9.45
2022-11-20T06:44:58.126Z,9.47
2022-11-20T06:45:58.109Z,9.45
2022-11-20T06:46:58.098Z,9.45
2022-11-20T06:47:58.082Z,9.45
2022-11-20T06:48:58.074Z,9.47
2022-11-20T06:49:58.055Z,9.44
2022-11-20T06:50:58.075Z,9.44
2022-11-20T06:51:58.029Z,9.44
2022-11-20T06:52:58.017Z,9.45
2022-11-20T06:53:58.004Z,9.42
2022-11-20T06:54:57.991Z,9.44
2022-11-20T06:55:57.977Z,9.41
2022-11-20T06:56:57.966Z,9.44
2022-11-20T06:57:57.951Z,9.44
2022-11-20T06:58:57.941Z,9.42
2022-11-20T06:59:57.926Z,9.42
2022-11-20T07:00:57.941Z,9.44
2022-11-20T07:01:57.899Z,9.44
2022-11-20T07:02:57.887Z,9.41
2022-11-20T07:03:57.871Z,9.44
2022-11-20T07:04:57.860Z,9.41
2022-11-20T07:05:57.846Z,9.42
2022-11-20T07:06:57.907Z,9.44
2022-11-20T07:07:57.818Z,9.41
2022-11-20T07:08:57.806Z,9.42
2022-11-20T07:09:57.793Z,9.41
2022-11-20T07:10:57.781Z,9.42
2022-11-20T07:11:57.764Z,9.42
2022-11-20T07:12:57.754Z,9.42
2022-11-20T07:13:57.737Z,9.41
2022-11-20T07:14:57.728Z,9.39
2022-11-20T07:15:57.715Z,9.41
2022-11-20T07:16:57.700Z,9.41
2022-11-20T07:17:57.687Z,9.41
2022-11-20T07:18:57.679Z,9.41
2022-11-20T07:19:57.661Z,9.41
2022-11-20T07:20:57.648Z,9.41
2022-11-20T07:21:57.635Z,9.41
2022-11-20T07:22:57.624Z,9.42
2022-11-20T07:23:57.607Z,9.42
2022-11-20T07:24:57.595Z,9.44
2022-11-20T07:25:57.581Z,9.44
2022-11-20T07:26:57.569Z,9.41
2022-11-20T07:27:57.555Z,9.41
2022-11-20T07:28:57.542Z,9.42
2022-11-20T07:29:57.530Z,9.44
2022-11-20T07:30:57.517Z,9.44
2022-11-20T07:31:57.501Z,9.44
2022-11-20T07:32:57.503Z,9.45
2022-11-20T07:33:57.475Z,9.45
2022-11-20T07:34:57.463Z,9.44
2022-11-20T07:35:57.448Z,9.44
2022-11-20T07:36:57.438Z,9.41
2022-11-20T07:37:57.416Z,9.41
2022-11-20T07:38:57.405Z,9.42
2022-11-20T07:39:57.389Z,9.41
2022-11-20T07:40:57.379Z,9.41
2022-11-20T07:41:57.364Z,9.39
2022-11-20T07:42:57.354Z,9.41
2022-11-20T07:43:57.337Z,9.39
2022-11-20T07:44:57.325Z,9.38
2022-11-20T07:45:57.325Z,9.39
2022-11-20T07:46:57.298Z,9.38
2022-11-20T07:47:57.286Z,9.38
2022-11-20T07:48:57.274Z,9.38
2022-11-20T07:49:57.260Z,9.41
2022-11-20T07:50:57.252Z,9.44
2022-11-20T07:52:01.725Z,9.44
2022-11-20T07:52:58.263Z,9.42
2022-11-20T07:53:57.221Z,9.44
2022-11-20T07:54:57.200Z,9.42
2022-11-20T07:55:57.183Z,9.42
2022-11-20T07:56:57.172Z,9.41
2022-11-20T07:57:57.157Z,9.42
2022-11-20T07:58:57.149Z,9.44
2022-11-20T07:59:57.131Z,9.44
2022-11-20T08:00:57.161Z,9.45
2022-11-20T08:01:57.274Z,9.44
2022-11-20T08:02:57.096Z,9.44
2022-11-20T08:03:57.080Z,9.44
2022-11-20T08:04:57.067Z,9.47
2022-11-20T08:05:57.052Z,9.47
2022-11-20T08:06:57.501Z,9.45
2022-11-20T08:07:57.026Z,9.45
2022-11-20T08:08:57.014Z,9.45
2022-11-20T08:09:56.999Z,9.47
2022-11-20T08:10:56.989Z,9.47
2022-11-20T08:11:57.186Z,9.48
2022-11-20T08:12:56.961Z,9.47
2022-11-20T08:13:56.946Z,9.48
2022-11-20T08:14:56.936Z,9.47
2022-11-20T08:15:56.921Z,9.42
2022-11-20T08:16:56.912Z,9.44
2022-11-20T08:18:23.291Z,9.45
2022-11-20T08:18:57.922Z,9.45
2022-11-20T08:19:56.868Z,9.44
2022-11-20T08:20:56.863Z,9.42
2022-11-20T08:21:56.847Z,9.42
2022-11-20T08:22:56.830Z,9.44
2022-11-20T08:23:56.820Z,9.44
2022-11-20T08:24:56.806Z,9.44
2022-11-20T08:25:56.790Z,9.45
2022-11-20T08:26:56.778Z,9.45
2022-11-20T08:28:00.124Z,9.47
2022-11-20T08:28:56.752Z,9.47
2022-11-20T08:29:56.736Z,9.47
2022-11-20T08:30:56.725Z,9.45
2022-11-20T08:31:56.709Z,9.47
2022-11-20T08:32:56.699Z,9.47
2022-11-20T08:33:56.683Z,9.45
2022-11-20T08:34:56.672Z,9.45
2022-11-20T08:35:56.658Z,9.45
2022-11-20T08:36:56.644Z,9.42
2022-11-20T08:37:56.630Z,9.45
2022-11-20T08:38:56.620Z,9.47
2022-11-20T08:39:56.604Z,9.45
2022-11-20T08:40:56.591Z,9.47
2022-11-20T08:41:56.578Z,9.45
2022-11-20T08:42:56.570Z,9.48
2022-11-20T08:43:56.550Z,9.48
2022-11-20T08:44:56.539Z,9.47
2022-11-20T08:45:56.524Z,9.47
2022-11-20T08:46:56.512Z,9.47
2022-11-20T08:47:56.499Z,9.48
2022-11-20T08:48:56.487Z,9.48
2022-11-20T08:49:56.473Z,9.49
2022-11-20T08:50:56.460Z,9.49
2022-11-20T08:51:56.460Z,9.51
2022-11-20T08:52:56.433Z,9.52
2022-11-20T08:53:56.420Z,9.55
2022-11-20T08:54:56.406Z,9.52
2022-11-20T08:55:56.393Z,9.52
2022-11-20T08:56:56.382Z,9.52
2022-11-20T08:57:56.367Z,9.52
2022-11-20T09:00:06.520Z,9.52
2022-11-20T09:00:57.452Z,9.52
2022-11-20T09:01:56.315Z,9.51
2022-11-20T09:02:56.303Z,9.52
2022-11-20T09:03:56.289Z,9.52
2022-11-20T09:04:56.529Z,9.51
2022-11-20T09:05:56.262Z,9.49
2022-11-20T09:06:56.248Z,9.49
2022-11-20T09:07:56.234Z,9.51
2022-11-20T09:08:56.224Z,9.51
2022-11-20T09:10:16.828Z,9.51
2022-11-20T09:10:57.235Z,9.55
2022-11-20T09:11:56.181Z,9.55
2022-11-20T09:12:56.388Z,9.56
2022-11-20T09:13:56.157Z,9.57
2022-11-20T09:14:56.142Z,9.57
2022-11-20T09:15:56.130Z,9.57
2022-11-20T09:16:56.117Z,9.56
2022-11-20T09:17:56.102Z,9.55
2022-11-20T09:19:20.172Z,9.55
2022-11-20T09:19:57.115Z,9.55
2022-11-20T09:20:56.076Z,9.55
2022-11-20T09:21:59.701Z,9.55
2022-11-20T09:22:56.039Z,9.52
2022-11-20T09:23:56.027Z,9.52
2022-11-20T09:24:56.011Z,9.52
2022-11-20T09:25:55.996Z,9.55
2022-11-20T09:26:55.987Z,9.59
2022-11-20T09:27:55.972Z,9.59
2022-11-20T09:28:58.104Z,9.60
2022-11-20T09:29:55.944Z,9.60
2022-11-20T09:30:55.933Z,9.63
2022-11-20T09:31:55.922Z,9.62
2022-11-20T09:32:55.911Z,9.60
2022-11-20T09:33:55.890Z,9.59
2022-11-20T09:34:55.883Z,9.59
2022-11-20T09:35:55.865Z,9.59
2022-11-20T09:36:55.852Z,9.59
2022-11-20T09:37:55.839Z,9.59
2022-11-20T09:38:55.829Z,9.56
2022-11-20T09:39:55.812Z,9.59
2022-11-20T09:40:55.802Z,9.59
2022-11-20T09:41:55.785Z,9.59
2022-11-20T09:42:55.774Z,9.59
2022-11-20T09:43:55.758Z,9.59
2022-11-20T09:44:55.748Z,9.57
2022-11-20T09:45:55.733Z,9.59
2022-11-20T09:46:55.721Z,9.60
2022-11-20T09:47:55.707Z,9.57
2022-11-20T09:48:55.695Z,9.57
2022-11-20T09:49:55.680Z,9.57
2022-11-20T09:50:55.667Z,9.57
2022-11-20T09:51:55.653Z,9.60
2022-11-20T09:52:55.641Z,9.57
2022-11-20T09:53:55.628Z,9.56
2022-11-20T09:54:55.621Z,9.55
2022-11-20T09:55:55.600Z,9.56
2022-11-20T09:56:55.595Z,9.57
2022-11-20T09:57:55.575Z,9.57
2022-11-20T09:58:55.564Z,9.59
2022-11-20T09:59:55.548Z,9.57
2022-11-20T10:00:55.575Z,9.57
2022-11-20T10:01:55.528Z,9.59
2022-11-20T10:02:55.508Z,9.57
2022-11-20T10:03:55.503Z,9.57
2022-11-20T10:04:55.484Z,9.57
2022-11-20T10:05:55.468Z,9.59
2022-11-20T10:07:17.263Z,9.59
2022-11-20T10:07:55.468Z,9.62
2022-11-20T10:08:55.429Z,9.62
2022-11-20T10:09:55.416Z,9.60
2022-11-20T10:10:55.405Z,9.59
2022-11-20T10:11:55.388Z,9.57
2022-11-20T10:12:55.377Z,9.57
2022-11-20T10:13:55.362Z,9.57
2022-11-20T10:14:55.352Z,9.56
2022-11-20T10:15:55.337Z,9.56
2022-11-20T10:16:55.323Z,9.56
2022-11-20T10:17:55.312Z,9.56
2022-11-20T10:18:55.301Z,9.57
2022-11-20T10:19:55.281Z,9.57
2022-11-20T10:20:55.270Z,9.59
2022-11-20T10:21:55.257Z,9.56
2022-11-20T10:22:55.244Z,9.57
2022-11-20T10:23:55.230Z,9.57
2022-11-20T10:24:55.222Z,9.59
2022-11-20T10:25:55.202Z,9.57
2022-11-20T10:26:55.195Z,9.59
2022-11-20T10:27:55.178Z,9.60
2022-11-20T10:28:58.878Z,9.60
2022-11-20T10:29:55.156Z,9.59
2022-11-20T10:30:55.140Z,9.56
2022-11-20T10:31:55.124Z,9.59
2022-11-20T10:32:55.112Z,9.60
2022-11-20T10:34:11.746Z,9.57
2022-11-20T10:34:56.125Z,9.60
2022-11-20T10:35:55.073Z,9.57
2022-11-20T10:36:55.060Z,9.57
2022-11-20T10:37:55.046Z,9.57
2022-11-20T10:38:55.031Z,9.57
2022-11-20T10:39:55.021Z,9.60
2022-11-20T10:40:55.006Z,9.59
2022-11-20T10:41:54.994Z,9.60
2022-11-20T10:42:54.982Z,9.59
2022-11-20T10:43:54.969Z,9.59
2022-11-20T10:44:56.651Z,9.59
2022-11-20T10:45:54.942Z,9.60
2022-11-20T10:46:54.926Z,9.59
2022-11-20T10:47:54.916Z,9.62
2022-11-20T10:48:54.900Z,9.59
2022-11-20T10:49:54.891Z,9.57
2022-11-20T10:50:54.874Z,9.59
2022-11-20T10:51:54.864Z,9.57
2022-11-20T10:52:54.848Z,9.60
2022-11-20T10:53:54.835Z,9.59
2022-11-20T10:54:54.821Z,9.60
2022-11-20T10:55:54.813Z,9.62
2022-11-20T10:56:54.795Z,9.60
2022-11-20T10:57:54.787Z,9.60
2022-11-20T10:58:54.769Z,9.62
2022-11-20T10:59:54.758Z,9.62
2022-11-20T11:00:54.782Z,9.62
2022-11-20T11:01:54.730Z,9.60
2022-11-20T11:02:54.718Z,9.60
2022-11-20T11:03:54.703Z,9.60
2022-11-20T11:04:54.694Z,9.60
2022-11-20T11:05:54.677Z,9.59
2022-11-20T11:06:54.662Z,9.59
2022-11-20T11:07:54.651Z,9.57
2022-11-20T11:08:54.637Z,9.60
2022-11-20T11:09:54.624Z,9.59
2022-11-20T11:10:54.610Z,9.59
2022-11-20T11:11:54.598Z,9.59
2022-11-20T11:12:54.583Z,9.59
2022-11-20T11:13:54.575Z,9.59
2022-11-20T11:14:54.557Z,9.59
2022-11-20T11:15:54.545Z,9.60
2022-11-20T11:16:54.533Z,9.60
2022-11-20T11:17:54.522Z,9.59
2022-11-20T11:18:54.505Z,9.60
2022-11-20T11:19:54.493Z,9.60
2022-11-20T11:20:54.479Z,9.59
2022-11-20T11:21:55.864Z,9.60
2022-11-20T11:22:54.457Z,9.62
2022-11-20T11:23:55.605Z,9.63
2022-11-20T11:24:54.431Z,9.62
2022-11-20T11:25:54.421Z,9.59
2022-11-20T11:26:54.400Z,9.60
2022-11-20T11:27:54.400Z,9.60
2022-11-20T11:28:54.373Z,9.60
2022-11-20T11:29:54.362Z,9.62
2022-11-20T11:30:54.347Z,9.60
2022-11-20T11:31:54.333Z,9.60
2022-11-20T11:32:54.320Z,9.59
2022-11-20T11:33:54.309Z,9.60
2022-11-20T11:34:54.296Z,9.62
2022-11-20T11:35:54.283Z,9.60
2022-11-20T11:36:54.266Z,9.60
2022-11-20T11:37:54.255Z,9.59
2022-11-20T11:38:54.242Z,9.59
2022-11-20T11:40:16.427Z,9.60
2022-11-20T11:40:55.253Z,9.62
2022-11-20T11:41:54.205Z,9.62
2022-11-20T11:42:54.189Z,9.62
2022-11-20T11:43:54.176Z,9.60
2022-11-20T11:44:54.166Z,9.60
2022-11-20T11:45:54.150Z,9.59
2022-11-20T11:46:54.136Z,9.59
2022-11-20T11:47:54.127Z,9.60
2022-11-20T11:48:54.112Z,9.63
2022-11-20T11:49:54.098Z,9.62
2022-11-20T11:50:54.084Z,9.65
2022-11-20T11:51:54.075Z,9.63
2022-11-20T11:52:54.058Z,9.65
2022-11-20T11:53:54.050Z,9.65
2022-11-20T11:54:54.032Z,9.63
2022-11-20T11:55:54.019Z,9.63
2022-11-20T11:56:54.004Z,9.65
2022-11-20T11:57:53.992Z,9.65
2022-11-20T11:58:53.979Z,9.65
2022-11-20T11:59:53.967Z,9.63
2022-11-20T12:00:53.951Z,9.65
2022-11-20T12:01:54.023Z,9.63
2022-11-20T12:02:53.927Z,9.65
2022-11-20T12:03:53.916Z,9.66
2022-11-20T12:04:53.901Z,9.65
2022-11-20T12:05:53.889Z,9.63
2022-11-20T12:06:53.884Z,9.63
2022-11-20T12:07:53.925Z,9.65
2022-11-20T12:08:53.847Z,9.65
2022-11-20T12:09:53.835Z,9.66
2022-11-20T12:10:53.820Z,9.66
2022-11-20T12:11:53.809Z,9.66
2022-11-20T12:12:53.795Z,9.67
2022-11-20T12:13:53.785Z,9.67
2022-11-20T12:14:53.768Z,9.67
2022-11-20T12:15:53.759Z,9.67
2022-11-20T12:16:53.748Z,9.66
2022-11-20T12:17:53.729Z,9.66
2022-11-20T12:18:53.715Z,9.65
2022-11-20T12:19:53.704Z,9.65
2022-11-20T12:20:53.689Z,9.65
2022-11-20T12:21:58.469Z,9.66
2022-11-20T12:22:54.703Z,9.66
2022-11-20T12:23:53.653Z,9.65
2022-11-20T12:24:53.636Z,9.66
2022-11-20T12:25:53.625Z,9.66
2022-11-20T12:26:53.609Z,9.67
2022-11-20T12:27:53.604Z,9.66
2022-11-20T12:28:53.583Z,9.67
2022-11-20T12:29:53.574Z,9.69
2022-11-20T12:30:53.557Z,9.66
2022-11-20T12:31:53.546Z,9.67
2022-11-20T12:32:53.535Z,9.67
2022-11-20T12:33:53.520Z,9.66
2022-11-20T12:34:53.506Z,9.67
2022-11-20T12:35:53.495Z,9.67
2022-11-20T12:36:53.480Z,9.66
2022-11-20T12:37:53.469Z,9.69
2022-11-20T12:38:53.455Z,9.69
2022-11-20T12:39:53.442Z,9.69
2022-11-20T12:40:53.426Z,9.69
2022-11-20T12:41:53.415Z,9.69
2022-11-20T12:42:53.399Z,9.69
2022-11-20T12:43:53.388Z,9.69
2022-11-20T12:44:53.374Z,9.67
2022-11-20T12:45:53.362Z,9.67
2022-11-20T12:46:53.346Z,9.67
2022-11-20T12:47:53.334Z,9.67
2022-11-20T12:48:53.324Z,9.69
2022-11-20T12:49:53.310Z,9.69
2022-11-20T12:51:14.126Z,9.70
2022-11-20T12:51:54.326Z,9.70
2022-11-20T12:52:53.277Z,9.72
2022-11-20T12:53:53.256Z,9.70
2022-11-20T12:54:53.241Z,9.70
2022-11-20T12:55:53.239Z,9.70
2022-11-20T12:56:53.216Z,9.70
2022-11-20T12:57:53.203Z,9.72
2022-11-20T12:58:53.189Z,9.72
2022-11-20T12:59:53.177Z,9.72
2022-11-20T13:00:53.226Z,9.72
2022-11-20T13:01:53.157Z,9.69
2022-11-20T13:02:53.136Z,9.69
2022-11-20T13:03:53.125Z,9.70
2022-11-20T13:04:53.114Z,9.70
2022-11-20T13:05:53.103Z,9.70
2022-11-20T13:06:53.088Z,9.72
2022-11-20T13:07:53.072Z,9.74
2022-11-20T13:08:53.057Z,9.75
2022-11-20T13:09:53.046Z,9.72
2022-11-20T13:10:53.030Z,9.70
2022-11-20T13:11:53.021Z,9.72
2022-11-20T13:12:53.007Z,9.72
2022-11-20T13:13:52.994Z,9.74
2022-11-20T13:14:52.982Z,9.74
2022-11-20T13:15:52.968Z,9.75
2022-11-20T13:16:52.956Z,9.74
2022-11-20T13:17:52.941Z,9.72
2022-11-20T13:18:52.928Z,9.72